createdAt,value
2019-04-04T00:07:37.500Z,27.13
2019-04-04T00:22:48.797Z,29.17
2019-04-04T00:37:56.647Z,30.77
2019-04-04T00:53:04.302Z,26.57
2019-04-04T01:08:11.886Z,29.60
2019-04-04T01:23:19.531Z,31.53
2019-04-04T01:38:29.151Z,31.53
2019-04-04T01:53:36.365Z,28.63
2019-04-04T02:08:43.709Z,31.70
2019-04-04T02:23:51.267Z,25.23
2019-04-04T02:39:10.771Z,28.33
2019-04-04T02:54:18.120Z,33.07
2019-04-04T03:09:25.531Z,34.17
2019-04-04T03:24:34.018Z,30.13
2019-04-04T03:39:41.373Z,30.27
2019-04-04T03:54:48.754Z,27.20
2019-04-04T04:09:59.282Z,32.03
2019-04-04T04:25:05.213Z,31.30
2019-04-04T04:40:15.164Z,32.40
2019-04-04T04:55:21.693Z,29.97
2019-04-04T05:10:29.101Z,28.27
2019-04-04T05:25:49.729Z,28.43
2019-04-04T05:40:45.660Z,32.93
2019-04-04T05:55:53.109Z,30.97
2019-04-04T06:11:00.498Z,32.93
2019-04-04T06:26:07.882Z,33.27
2019-04-04T06:41:15.227Z,37.67
2019-04-04T06:56:22.705Z,33.20
2019-04-04T07:11:30.037Z,36.37
2019-04-04T07:26:37.434Z,27.13
2019-04-04T07:41:45.105Z,27.67
2019-04-04T07:56:53.620Z,30.40
2019-04-04T08:12:01.075Z,29.67
2019-04-04T08:27:08.488Z,32.27
2019-04-04T08:42:17.119Z,30.77
2019-04-04T08:57:25.037Z,26.90
2019-04-04T09:12:32.538Z,29.53
2019-04-04T09:27:39.926Z,24.97
2019-04-04T09:42:47.387Z,31.73
2019-04-04T09:57:54.773Z,27.80
2019-04-04T10:13:03.364Z,20.27
2019-04-04T10:28:10.706Z,25.00
2019-04-04T10:43:18.082Z,20.47
2019-04-04T10:58:25.619Z,20.33
2019-04-04T11:13:34.070Z,20.97
2019-04-04T11:28:41.557Z,17.57
2019-04-04T11:43:49.125Z,15.43
2019-04-04T11:58:56.483Z,19.70
2019-04-04T12:14:04.031Z,16.53
2019-04-04T12:29:11.429Z,16.40
2019-04-04T12:44:18.803Z,16.30
2019-04-04T12:59:26.241Z,19.67
2019-04-04T13:14:33.588Z,15.73
2019-04-04T13:29:41.014Z,15.60
2019-04-04T13:44:48.387Z,20.90
2019-04-04T13:59:55.861Z,13.47
2019-04-04T14:15:03.245Z,27.40
2019-04-04T14:30:11.686Z,19.87
2019-04-04T14:45:19.136Z,16.30
2019-04-04T15:00:26.484Z,14.97
2019-04-04T15:15:33.897Z,19.80
2019-04-04T15:30:41.251Z,13.40
2019-04-04T15:45:48.653Z,14.80
2019-04-04T16:00:56.045Z,13.43
2019-04-04T16:16:03.410Z,16.37
2019-04-04T16:31:11.789Z,13.60
2019-04-04T16:46:19.181Z,19.83
2019-04-04T17:01:26.542Z,24.00
2019-04-04T17:16:33.953Z,20.50
2019-04-04T17:31:41.369Z,20.00
2019-04-04T17:46:49.297Z,32.63
2019-04-04T18:02:03.601Z,25.63
2019-04-04T18:17:11.378Z,28.40
2019-04-04T18:32:18.792Z,34.90
2019-04-04T18:47:26.206Z,32.20
2019-04-04T19:02:33.563Z,42.93
2019-04-04T19:17:40.987Z,38.83
2019-04-04T19:32:48.495Z,30.70
2019-04-04T19:47:55.897Z,37.23
2019-04-04T20:03:03.375Z,30.00
2019-04-04T20:18:10.807Z,30.27
2019-04-04T20:33:18.228Z,30.53
2019-04-04T20:48:25.571Z,30.63
2019-04-04T21:03:32.989Z,30.30
2019-04-04T21:18:40.331Z,31.57
2019-04-04T21:33:47.697Z,27.23
2019-04-04T21:48:55.086Z,30.77
2019-04-04T22:04:02.456Z,32.47
2019-04-04T22:19:09.929Z,36.80
2019-04-04T22:34:17.386Z,36.30
2019-04-04T22:49:24.747Z,41.97
2019-04-04T23:04:32.138Z,45.17
2019-04-04T23:19:39.567Z,34.47
2019-04-04T23:34:47.047Z,32.40
2019-04-04T23:49:54.513Z,36.00
